createdAt,value
2022-11-07T00:02:15.756Z,0.38
2022-11-07T00:04:42.336Z,0.60
2022-11-07T00:07:08.947Z,0.60
2022-11-07T00:09:35.565Z,0.65
2022-11-07T00:12:02.176Z,0.75
2022-11-07T00:14:28.760Z,0.60
2022-11-07T00:16:55.325Z,0.73
2022-11-07T00:19:22.189Z,0.40
2022-11-07T00:21:49.279Z,0.65
2022-11-07T00:24:17.161Z,0.60
2022-11-07T00:26:45.567Z,0.32
2022-11-07T00:29:13.670Z,0.30
2022-11-07T00:34:06.680Z,0.35
2022-11-07T00:36:33.358Z,0.60
2022-11-07T00:39:00.005Z,0.50
2022-11-07T00:41:26.617Z,0.65
2022-11-07T00:43:53.761Z,0.80
2022-11-07T00:46:21.237Z,0.40
2022-11-07T00:48:48.358Z,0.70
2022-11-07T00:51:23.746Z,0.30
2022-11-07T00:53:50.713Z,0.70
2022-11-07T00:56:23.868Z,0.30
2022-11-07T00:59:00.022Z,0.50
2022-11-07T01:01:29.097Z,0.50
2022-11-07T01:03:56.918Z,0.65
2022-11-07T01:06:23.863Z,0.50
2022-11-07T01:08:50.626Z,0.70
2022-11-07T01:11:17.311Z,0.50
2022-11-07T01:13:43.788Z,1.05
2022-11-07T01:16:11.087Z,0.50
2022-11-07T01:18:37.730Z,0.47
2022-11-07T01:21:06.631Z,0.50
2022-11-07T01:23:34.261Z,0.63
2022-11-07T01:26:08.743Z,0.40
2022-11-07T01:28:36.106Z,0.75
2022-11-07T01:31:08.238Z,0.90
2022-11-07T01:33:35.769Z,0.47
2022-11-07T01:36:06.250Z,0.50
2022-11-07T01:38:33.105Z,0.45
2022-11-07T01:40:59.580Z,0.43
2022-11-07T01:43:41.476Z,0.50
2022-11-07T01:46:08.156Z,0.30
2022-11-07T01:48:34.797Z,0.50
2022-11-07T01:51:01.843Z,0.40
2022-11-07T01:53:28.600Z,0.55
2022-11-07T01:55:55.188Z,0.50
2022-11-07T01:58:21.885Z,0.40
2022-11-07T02:00:48.353Z,0.30
2022-11-07T02:03:18.585Z,0.40
2022-11-07T02:05:59.999Z,0.60
2022-11-07T02:08:28.016Z,0.40
2022-11-07T02:10:55.130Z,0.40
2022-11-07T02:13:26.959Z,0.35
2022-11-07T02:15:56.664Z,0.40
2022-11-07T02:18:23.892Z,0.80
2022-11-07T02:20:52.226Z,0.40
2022-11-07T02:23:26.812Z,0.40
2022-11-07T02:25:54.208Z,0.50
2022-11-07T02:28:23.857Z,0.40
2022-11-07T02:30:50.424Z,0.55
2022-11-07T02:33:21.878Z,0.45
2022-11-07T02:35:51.005Z,0.60
2022-11-07T02:38:22.441Z,0.68
2022-11-07T02:40:56.886Z,0.55
2022-11-07T02:43:26.969Z,0.35
2022-11-07T02:45:54.443Z,0.30
2022-11-07T02:48:21.132Z,0.40
2022-11-07T02:50:47.691Z,0.77
2022-11-07T02:53:14.527Z,0.30
2022-11-07T02:55:41.159Z,0.32
2022-11-07T02:58:07.768Z,0.43
2022-11-07T03:00:34.444Z,0.60
2022-11-07T03:03:00.971Z,0.30
2022-11-07T03:05:27.866Z,0.70
2022-11-07T03:07:54.405Z,0.40
2022-11-07T03:10:21.051Z,0.30
2022-11-07T03:12:47.914Z,0.50
2022-11-07T03:15:15.091Z,0.30
2022-11-07T03:17:42.251Z,0.60
2022-11-07T03:20:10.144Z,0.60
2022-11-07T03:22:36.958Z,0.55
2022-11-07T03:25:04.153Z,0.70
2022-11-07T03:27:30.658Z,0.60
2022-11-07T03:29:57.190Z,0.75
2022-11-07T03:32:24.361Z,0.98
2022-11-07T03:34:50.821Z,0.38
2022-11-07T03:37:17.318Z,0.60
2022-11-07T03:39:43.769Z,0.60
2022-11-07T03:42:10.223Z,0.63
2022-11-07T03:44:36.913Z,0.45
2022-11-07T03:47:03.389Z,0.50
2022-11-07T03:49:29.926Z,0.80
2022-11-07T03:51:56.460Z,0.50
2022-11-07T03:54:22.909Z,0.73
2022-11-07T03:56:49.710Z,0.60
2022-11-07T03:59:16.165Z,0.50
2022-11-07T04:01:42.738Z,0.50
2022-11-07T04:04:09.368Z,0.52
2022-11-07T04:06:38.956Z,0.32
2022-11-07T04:09:06.052Z,0.38
2022-11-07T04:11:32.492Z,0.50
2022-11-07T04:13:58.955Z,0.60
2022-11-07T04:16:25.534Z,0.55
2022-11-07T04:18:52.238Z,0.40
2022-11-07T04:21:18.723Z,0.55
2022-11-07T04:23:45.417Z,0.22
2022-11-07T04:26:11.860Z,0.30
2022-11-07T04:28:38.994Z,0.40
2022-11-07T04:31:05.745Z,0.30
2022-11-07T04:33:32.223Z,0.60
2022-11-07T04:35:58.729Z,0.40
2022-11-07T04:38:25.292Z,0.90
2022-11-07T04:40:58.455Z,0.50
2022-11-07T04:43:26.644Z,0.57
2022-11-07T04:45:53.192Z,0.38
2022-11-07T04:48:19.889Z,0.35
2022-11-07T04:50:47.085Z,0.40
2022-11-07T04:53:18.033Z,0.67
2022-11-07T04:55:44.870Z,0.40
2022-11-07T04:58:11.524Z,0.40
2022-11-07T05:00:38.073Z,0.55
2022-11-07T05:03:04.634Z,0.55
2022-11-07T05:05:31.491Z,0.22
2022-11-07T05:07:58.022Z,0.40
2022-11-07T05:10:27.556Z,0.30
2022-11-07T05:12:55.006Z,0.47
2022-11-07T05:15:21.776Z,0.40
2022-11-07T05:17:49.097Z,0.60
2022-11-07T05:20:37.444Z,0.37
2022-11-07T05:23:04.986Z,0.30
2022-11-07T05:25:31.436Z,0.70
2022-11-07T05:27:58.014Z,0.50
2022-11-07T05:30:24.510Z,0.50
2022-11-07T05:32:50.992Z,0.28
2022-11-07T05:35:17.430Z,0.52
2022-11-07T05:37:43.884Z,0.20
2022-11-07T05:40:11.302Z,0.40
2022-11-07T05:42:37.782Z,0.47
2022-11-07T05:45:04.774Z,0.43
2022-11-07T05:47:31.210Z,0.32
2022-11-07T05:49:57.653Z,0.30
2022-11-07T05:52:24.190Z,0.40
2022-11-07T05:54:50.743Z,0.38
2022-11-07T05:57:17.168Z,0.55
2022-11-07T05:59:43.716Z,0.60
2022-11-07T06:02:10.252Z,0.60
2022-11-07T06:04:37.076Z,0.98
2022-11-07T06:07:03.752Z,0.50
2022-11-07T06:09:30.180Z,0.38
2022-11-07T06:11:56.855Z,0.60
2022-11-07T06:14:23.686Z,0.35
2022-11-07T06:16:50.129Z,0.40
2022-11-07T06:19:16.833Z,0.55
2022-11-07T06:21:43.305Z,0.47
2022-11-07T06:24:15.142Z,0.70
2022-11-07T06:26:42.143Z,0.45
2022-11-07T06:29:08.639Z,0.40
2022-11-07T06:31:35.158Z,0.50
2022-11-07T06:34:01.768Z,0.50
2022-11-07T06:36:28.541Z,0.60
2022-11-07T06:38:55.312Z,0.68
2022-11-07T06:41:21.740Z,0.50
2022-11-07T06:43:51.001Z,0.75
2022-11-07T06:46:18.237Z,0.60
2022-11-07T06:48:45.105Z,0.47
2022-11-07T06:51:12.232Z,0.65
2022-11-07T06:53:39.293Z,0.43
2022-11-07T06:56:07.813Z,0.47
2022-11-07T06:58:34.821Z,0.52
2022-11-07T07:01:03.187Z,0.70
2022-11-07T07:03:30.213Z,0.70
2022-11-07T07:06:04.881Z,0.80
2022-11-07T07:08:32.029Z,0.60
2022-11-07T07:11:03.546Z,0.40
2022-11-07T07:13:30.422Z,0.65
2022-11-07T07:15:57.985Z,0.40
2022-11-07T07:18:25.798Z,0.73
2022-11-07T07:20:52.981Z,0.40
2022-11-07T07:23:20.711Z,0.50
2022-11-07T07:25:48.103Z,0.50
2022-11-07T07:28:14.637Z,0.50
2022-11-07T07:30:41.176Z,0.50
2022-11-07T07:33:07.743Z,0.60
2022-11-07T07:35:34.257Z,0.98
2022-11-07T07:38:00.709Z,0.82
2022-11-07T07:40:27.277Z,0.80
2022-11-07T07:42:53.838Z,0.88
2022-11-07T07:45:20.286Z,0.95
2022-11-07T07:47:46.791Z,0.70
2022-11-07T07:50:13.927Z,0.55
2022-11-07T07:52:40.615Z,0.88
2022-11-07T07:55:07.915Z,0.65
2022-11-07T07:57:44.425Z,1.33
2022-11-07T08:00:11.909Z,0.90
2022-11-07T08:02:39.094Z,0.90
2022-11-07T08:05:06.237Z,2.03
2022-11-07T08:07:32.702Z,1.63
2022-11-07T08:10:02.066Z,1.13
2022-11-07T08:12:32.146Z,0.40
2022-11-07T08:14:58.594Z,0.57
2022-11-07T08:17:25.158Z,0.90
2022-11-07T08:19:51.729Z,0.50
2022-11-07T08:22:18.219Z,0.40
2022-11-07T08:24:44.709Z,0.30
2022-11-07T08:27:11.224Z,0.30
2022-11-07T08:29:37.661Z,0.30
2022-11-07T08:32:04.418Z,0.40
2022-11-07T08:34:30.957Z,0.38
2022-11-07T08:36:57.502Z,0.50
2022-11-07T08:39:23.958Z,0.60
2022-11-07T08:41:50.596Z,0.38
2022-11-07T08:44:17.046Z,0.65
2022-11-07T08:46:43.521Z,0.43
2022-11-07T08:49:10.028Z,0.60
2022-11-07T08:51:36.516Z,0.45
2022-11-07T08:54:03.276Z,0.98
2022-11-07T08:56:29.788Z,0.43
2022-11-07T08:58:56.242Z,0.20
2022-11-07T09:01:22.855Z,0.85
2022-11-07T09:03:56.445Z,0.40
2022-11-07T09:06:24.599Z,0.55
2022-11-07T09:08:51.429Z,0.35
2022-11-07T09:11:17.896Z,0.75
2022-11-07T09:13:44.982Z,0.40
2022-11-07T09:16:11.546Z,0.40
2022-11-07T09:18:38.292Z,0.50
2022-11-07T09:21:04.921Z,0.45
2022-11-07T09:23:31.412Z,0.30
2022-11-07T09:26:00.903Z,0.20
2022-11-07T09:28:28.342Z,0.40
2022-11-07T09:30:55.908Z,0.40
2022-11-07T09:33:23.397Z,0.50
2022-11-07T09:35:50.436Z,0.50
2022-11-07T09:38:17.571Z,0.30
2022-11-07T09:41:00.104Z,0.30
2022-11-07T09:43:57.540Z,0.30
2022-11-07T09:46:39.237Z,0.45
2022-11-07T09:49:19.782Z,0.30
2022-11-07T09:52:05.985Z,0.30
2022-11-07T09:54:37.208Z,0.45
2022-11-07T09:57:04.132Z,0.70
2022-11-07T09:59:41.867Z,0.47
2022-11-07T10:02:20.536Z,0.40
2022-11-07T10:04:54.106Z,0.30
2022-11-07T10:07:34.224Z,0.30
2022-11-07T10:10:21.914Z,0.40
2022-11-07T10:13:00.333Z,0.40
2022-11-07T10:16:06.912Z,0.50
2022-11-07T10:18:40.113Z,0.40
2022-11-07T10:21:37.019Z,0.60
2022-11-07T10:24:22.449Z,0.80
2022-11-07T10:26:49.073Z,0.90
2022-11-07T10:29:18.454Z,0.38
2022-11-07T10:31:53.273Z,0.70
2022-11-07T10:34:40.360Z,0.52
2022-11-07T10:37:09.017Z,0.67
2022-11-07T10:39:35.641Z,0.40
2022-11-07T10:42:20.985Z,0.57
2022-11-07T10:44:48.458Z,0.63
2022-11-07T10:47:25.802Z,0.50
2022-11-07T10:50:00.206Z,0.55
2022-11-07T10:52:27.922Z,0.50
2022-11-07T10:55:17.190Z,0.52
2022-11-07T10:57:46.293Z,0.80
2022-11-07T11:00:24.728Z,0.43
2022-11-07T11:02:52.539Z,0.88
2022-11-07T11:05:39.306Z,0.40
2022-11-07T11:08:21.309Z,0.40
2022-11-07T11:10:48.717Z,0.65
2022-11-07T11:13:30.560Z,0.63
2022-11-07T11:16:05.229Z,0.55
2022-11-07T11:18:32.944Z,0.40
2022-11-07T11:21:01.300Z,0.47
2022-11-07T11:23:30.813Z,0.40
2022-11-07T11:26:08.477Z,0.30
2022-11-07T11:28:42.526Z,0.50
2022-11-07T11:31:19.987Z,0.50
2022-11-07T11:34:25.695Z,0.60
2022-11-07T11:37:01.830Z,0.55
2022-11-07T11:39:37.705Z,0.35
2022-11-07T11:42:04.343Z,0.20
2022-11-07T11:44:42.146Z,0.32
2022-11-07T11:47:34.770Z,0.43
2022-11-07T11:50:13.524Z,0.35
2022-11-07T11:52:40.162Z,0.30
2022-11-07T11:55:14.249Z,0.20
2022-11-07T11:58:05.043Z,0.40
2022-11-07T12:00:39.184Z,0.32
2022-11-07T12:03:42.885Z,0.68
2022-11-07T12:06:14.775Z,0.38
2022-11-07T12:09:06.221Z,0.52
2022-11-07T12:11:41.255Z,0.50
2022-11-07T12:14:30.575Z,0.52
2022-11-07T12:17:21.310Z,0.50
2022-11-07T12:20:11.292Z,0.32
2022-11-07T12:22:55.773Z,0.50
2022-11-07T12:25:44.110Z,0.75
2022-11-07T12:28:29.490Z,0.52
2022-11-07T12:31:05.152Z,0.35
2022-11-07T12:33:47.676Z,0.32
2022-11-07T12:37:07.267Z,0.20
2022-11-07T12:40:02.943Z,0.30
2022-11-07T12:43:00.726Z,0.35
2022-11-07T12:45:52.446Z,0.60
2022-11-07T12:48:42.953Z,0.38
2022-11-07T12:51:29.094Z,0.50
2022-11-07T12:54:16.499Z,0.40
2022-11-07T12:56:47.182Z,0.47
2022-11-07T12:59:26.312Z,0.30
2022-11-07T13:02:18.049Z,0.40
2022-11-07T13:04:55.914Z,0.70
2022-11-07T13:10:05.129Z,0.50
2022-11-07T13:12:40.265Z,0.52
2022-11-07T13:15:10.641Z,0.30
2022-11-07T13:17:45.514Z,0.10
2022-11-07T13:20:20.886Z,0.30
2022-11-07T13:22:49.663Z,0.35
2022-11-07T13:25:16.947Z,0.35
2022-11-07T13:27:46.259Z,0.50
2022-11-07T13:30:12.648Z,0.28
2022-11-07T13:32:46.012Z,0.40
2022-11-07T13:35:25.854Z,0.50
2022-11-07T13:38:14.403Z,0.20
2022-11-07T13:40:49.708Z,0.63
2022-11-07T13:43:29.447Z,0.25
2022-11-07T13:45:59.914Z,0.77
2022-11-07T13:48:48.832Z,0.50
2022-11-07T13:51:17.958Z,0.57
2022-11-07T13:53:59.029Z,0.32
2022-11-07T13:56:39.929Z,0.30
2022-11-07T13:59:20.429Z,0.38
2022-11-07T14:01:47.094Z,0.20
2022-11-07T14:04:19.796Z,0.40
2022-11-07T14:06:47.819Z,0.35
2022-11-07T14:09:17.930Z,0.90
2022-11-07T14:11:46.980Z,0.50
2022-11-07T14:14:14.074Z,0.60
2022-11-07T14:16:45.184Z,0.43
2022-11-07T14:19:24.040Z,0.60
2022-11-07T14:21:50.653Z,0.60
2022-11-07T14:24:28.874Z,0.35
2022-11-07T14:27:04.450Z,0.43
2022-11-07T14:29:31.802Z,0.60
2022-11-07T14:32:00.654Z,0.25
2022-11-07T14:34:27.155Z,0.20
2022-11-07T14:37:01.447Z,0.22
2022-11-07T14:39:30.573Z,0.50
2022-11-07T14:41:59.088Z,0.32
2022-11-07T14:44:53.397Z,0.30
2022-11-07T14:47:26.808Z,0.52
2022-11-07T14:49:54.662Z,0.40
2022-11-07T14:52:21.071Z,0.30
2022-11-07T14:54:50.674Z,0.25
2022-11-07T14:57:17.305Z,0.30
2022-11-07T14:59:44.291Z,0.20
2022-11-07T15:02:23.580Z,0.25
2022-11-07T15:04:51.079Z,0.20
2022-11-07T15:07:29.487Z,0.27
2022-11-07T15:10:10.804Z,0.60
2022-11-07T15:12:49.560Z,0.47
2022-11-07T15:15:20.830Z,0.70
2022-11-07T15:17:52.380Z,0.75
2022-11-07T15:20:33.633Z,0.40
2022-11-07T15:23:02.672Z,0.63
2022-11-07T15:25:39.300Z,0.55
2022-11-07T15:28:21.851Z,0.65
2022-11-07T15:30:49.673Z,0.75
2022-11-07T15:33:17.429Z,0.60
2022-11-07T15:35:46.338Z,0.75
2022-11-07T15:38:22.388Z,1.35
2022-11-07T15:40:49.585Z,1.17
2022-11-07T15:43:16.085Z,0.53
2022-11-07T15:45:42.821Z,0.30
2022-11-07T15:48:16.303Z,0.80
2022-11-07T15:50:44.719Z,1.30
2022-11-07T15:55:47.782Z,0.98
2022-11-07T15:58:15.229Z,0.80
2022-11-07T16:00:42.126Z,0.80
2022-11-07T16:03:16.705Z,1.00
2022-11-07T16:05:45.963Z,0.93
2022-11-07T16:08:18.745Z,0.52
2022-11-07T16:10:48.510Z,0.47
2022-11-07T16:13:15.095Z,0.80
2022-11-07T16:15:47.239Z,0.85
2022-11-07T16:18:19.781Z,1.40
2022-11-07T16:20:48.107Z,0.80
2022-11-07T16:23:15.260Z,0.82
2022-11-07T16:25:44.053Z,1.10
2022-11-07T16:28:29.030Z,1.10
2022-11-07T16:30:55.895Z,0.90
2022-11-07T16:33:23.000Z,0.90
2022-11-07T16:35:51.694Z,0.70
2022-11-07T16:38:20.216Z,0.50
2022-11-07T16:40:47.268Z,0.60
2022-11-07T16:43:14.382Z,1.52
2022-11-07T16:45:46.532Z,1.20
2022-11-07T16:48:24.221Z,1.17
2022-11-07T16:50:51.858Z,2.03
2022-11-07T16:53:19.699Z,1.00
2022-11-07T16:55:53.346Z,1.25
2022-11-07T16:58:33.423Z,2.13
2022-11-07T17:01:05.417Z,2.28
2022-11-07T17:03:32.561Z,2.72
2022-11-07T17:06:01.555Z,2.13
2022-11-07T17:08:39.464Z,2.47
2022-11-07T17:13:32.820Z,1.42
2022-11-07T17:15:59.592Z,1.10
2022-11-07T17:18:26.996Z,2.83
2022-11-07T17:20:54.185Z,2.60
2022-11-07T17:23:28.492Z,2.03
2022-11-07T17:25:57.905Z,1.80
2022-11-07T17:28:24.466Z,1.98
2022-11-07T17:30:51.033Z,2.95
2022-11-07T17:33:17.545Z,3.58
2022-11-07T17:35:44.073Z,2.17
2022-11-07T17:38:16.402Z,1.92
2022-11-07T17:40:43.487Z,1.67
2022-11-07T17:43:10.058Z,1.83
2022-11-07T17:45:37.151Z,2.05
2022-11-07T17:48:04.438Z,1.85
2022-11-07T17:50:30.879Z,1.50
2022-11-07T17:52:57.649Z,1.70
2022-11-07T17:55:24.088Z,2.05
2022-11-07T17:57:50.657Z,2.33
2022-11-07T18:00:19.036Z,2.28
2022-11-07T18:02:46.167Z,2.05
2022-11-07T18:05:14.852Z,2.07
2022-11-07T18:07:41.386Z,2.20
2022-11-07T18:10:08.472Z,1.70
2022-11-07T18:12:34.959Z,2.20
2022-11-07T18:15:01.546Z,2.28
2022-11-07T18:17:28.026Z,2.22
2022-11-07T18:19:54.509Z,2.60
2022-11-07T18:22:21.092Z,2.20
2022-11-07T18:24:47.675Z,1.52
2022-11-07T18:27:14.258Z,1.70
2022-11-07T18:29:40.724Z,1.77
2022-11-07T18:32:07.311Z,1.60
2022-11-07T18:34:33.874Z,5.10
2022-11-07T18:37:00.603Z,7.47
2022-11-07T18:39:27.675Z,7.10
2022-11-07T18:41:54.206Z,4.18
2022-11-07T18:44:20.938Z,3.47
2022-11-07T18:46:47.609Z,2.30
2022-11-07T18:49:15.310Z,2.20
2022-11-07T18:51:41.949Z,1.55
2022-11-07T18:54:10.647Z,3.03
2022-11-07T18:56:37.189Z,3.53
2022-11-07T18:59:03.661Z,4.18
2022-11-07T19:01:31.510Z,4.50
2022-11-07T19:04:00.570Z,3.53
2022-11-07T19:06:29.395Z,3.80
2022-11-07T19:08:55.921Z,4.43
2022-11-07T19:11:27.612Z,5.10
2022-11-07T19:13:55.299Z,3.03
2022-11-07T19:16:22.274Z,2.35
2022-11-07T19:18:50.003Z,3.47
2022-11-07T19:21:21.301Z,3.15
2022-11-07T19:23:48.840Z,4.00
2022-11-07T19:26:16.855Z,3.45
2022-11-07T19:28:43.306Z,4.30
2022-11-07T19:31:11.317Z,4.03
2022-11-07T19:33:37.785Z,4.05
2022-11-07T19:36:07.864Z,5.28
2022-11-07T19:38:34.690Z,4.50
2022-11-07T19:41:05.658Z,5.25
2022-11-07T19:43:32.735Z,4.18
2022-11-07T19:45:59.317Z,4.72
2022-11-07T19:48:26.041Z,4.53
2022-11-07T19:50:52.575Z,4.25
2022-11-07T19:53:19.267Z,4.05
2022-11-07T19:55:45.983Z,4.60
2022-11-07T19:58:12.573Z,6.00
2022-11-07T20:00:39.104Z,9.98
2022-11-07T20:03:05.646Z,11.50
2022-11-07T20:05:32.284Z,14.25
2022-11-07T20:08:03.729Z,11.10
2022-11-07T20:10:32.029Z,10.00
2022-11-07T20:12:58.641Z,9.52
2022-11-07T20:15:25.088Z,9.70
2022-11-07T20:17:51.534Z,8.43
2022-11-07T20:20:18.065Z,7.45
2022-11-07T20:22:46.680Z,5.88
2022-11-07T20:25:14.245Z,5.10
2022-11-07T20:27:40.830Z,4.15
2022-11-07T20:30:08.184Z,3.35
2022-11-07T20:32:34.675Z,3.40
2022-11-07T20:35:01.146Z,4.60
2022-11-07T20:37:27.774Z,3.80
2022-11-07T20:39:54.248Z,6.10
2022-11-07T20:42:20.719Z,5.35
2022-11-07T20:44:49.395Z,4.70
2022-11-07T20:47:15.897Z,4.93
2022-11-07T20:49:42.581Z,5.30
2022-11-07T20:52:09.213Z,4.65
2022-11-07T20:54:36.842Z,5.95
2022-11-07T20:57:04.564Z,5.35
2022-11-07T20:59:31.624Z,5.18
2022-11-07T21:02:03.186Z,8.25
2022-11-07T21:04:36.279Z,10.90
2022-11-07T21:07:10.921Z,9.45
2022-11-07T21:09:37.547Z,8.50
2022-11-07T21:12:04.085Z,7.32
2022-11-07T21:14:30.595Z,6.78
2022-11-07T21:16:57.075Z,5.35
2022-11-07T21:19:23.544Z,3.42
2022-11-07T21:21:50.162Z,3.40
2022-11-07T21:24:16.768Z,2.70
2022-11-07T21:26:43.285Z,2.53
2022-11-07T21:29:09.766Z,3.15
2022-11-07T21:31:38.741Z,2.58
2022-11-07T21:34:06.929Z,2.50
2022-11-07T21:36:33.551Z,3.17
2022-11-07T21:39:00.901Z,3.92
2022-11-07T21:41:28.981Z,3.37
2022-11-07T21:43:56.743Z,2.90
2022-11-07T21:46:26.402Z,2.42
2022-11-07T21:48:53.539Z,2.90
2022-11-07T21:51:23.049Z,2.85
2022-11-07T21:53:50.015Z,2.63
2022-11-07T21:56:25.132Z,2.22
2022-11-07T21:58:58.437Z,2.28
2022-11-07T22:01:25.670Z,1.95
2022-11-07T22:04:06.128Z,1.83
2022-11-07T22:06:35.868Z,1.60
2022-11-07T22:11:29.314Z,1.45
2022-11-07T22:13:55.858Z,1.20
2022-11-07T22:16:23.074Z,2.15
2022-11-07T22:18:49.913Z,1.00
2022-11-07T22:21:19.881Z,1.63
2022-11-07T22:23:47.424Z,1.90
2022-11-07T22:26:18.342Z,1.70
2022-11-07T22:28:46.224Z,2.05
2022-11-07T22:33:41.017Z,2.03
2022-11-07T22:36:09.948Z,1.67
2022-11-07T22:38:37.434Z,2.47
2022-11-07T22:41:16.759Z,2.03
2022-11-07T22:43:43.813Z,1.90
2022-11-07T22:46:15.733Z,1.90
2022-11-07T22:48:43.195Z,2.10
2022-11-07T22:51:21.699Z,2.17
2022-11-07T22:53:54.621Z,1.90
2022-11-07T22:56:21.073Z,1.73
2022-11-07T22:58:47.826Z,1.63
2022-11-07T23:01:20.157Z,1.80
2022-11-07T23:03:47.722Z,1.80
2022-11-07T23:06:15.436Z,1.60
2022-11-07T23:08:42.429Z,3.22
2022-11-07T23:11:47.642Z,1.98
2022-11-07T23:14:17.347Z,1.70
2022-11-07T23:16:46.687Z,1.70
2022-11-07T23:19:15.210Z,1.60
2022-11-07T23:21:42.208Z,1.52
2022-11-07T23:24:09.317Z,1.33
2022-11-07T23:26:36.312Z,1.43
2022-11-07T23:29:14.197Z,1.38
2022-11-07T23:31:41.939Z,1.60
2022-11-07T23:34:08.685Z,1.48
2022-11-07T23:36:35.462Z,1.60
2022-11-07T23:39:06.275Z,1.60
2022-11-07T23:41:33.094Z,2.22
2022-11-07T23:43:59.702Z,1.48
2022-11-07T23:46:26.231Z,1.67
2022-11-07T23:48:52.885Z,1.67
2022-11-07T23:51:19.515Z,3.22
2022-11-07T23:53:45.946Z,1.50
2022-11-07T23:56:12.509Z,2.00
2022-11-07T23:58:39.077Z,1.95
